Time;durP1;ratioP1;P1;durP2;ratioP2;P2;SDS_P1;SDS_P2;PMS_P1;PMS_P2;Temp;Humidity;BMP_temperature;BMP_pressure;BME280_temperature;BME280_humidity;BME280_pressure;Samples;Min_cycle;Max_cycle;Signal;HPM_P1;HPM_P2
2022/05/05 00:01:29;;;;;;;;;;;25.80;34.60;;;;;;5073989;28;923;-44
2022/05/05 00:03:56;;;;;;;;;;;25.80;34.60;;;;;;5075363;28;932;-44
2022/05/05 00:06:23;;;;;;;;;;;25.80;34.60;;;;;;5074796;28;1975;-44
2022/05/05 00:08:51;;;;;;;;;;;25.80;34.70;;;;;;5073071;28;948;-44
2022/05/05 00:16:46;;;;;;;;;;;25.80;34.80;;;;;;5072973;28;991;-44
2022/05/05 00:19:12;;;;;;;;;;;25.80;34.70;;;;;;5073788;28;1031;-44
2022/05/05 00:21:39;;;;;;;;;;;25.80;34.80;;;;;;5073663;28;941;-44
2022/05/05 00:24:08;;;;;;;;;;;25.80;34.90;;;;;;5071988;28;1000;-44
2022/05/05 00:26:35;;;;;;;;;;;25.80;34.90;;;;;;5074160;28;1919;-44
2022/05/05 00:29:02;;;;;;;;;;;25.80;34.90;;;;;;5073742;28;1032;-44
2022/05/05 00:31:29;;;;;;;;;;;25.80;34.90;;;;;;5073423;28;1488;-44
2022/05/05 00:33:56;;;;;;;;;;;25.70;34.90;;;;;;5073597;28;835;-44
2022/05/05 00:36:23;;;;;;;;;;;25.70;35.00;;;;;;5072356;28;968;-46
2022/05/05 00:38:49;;;;;;;;;;;25.80;35.10;;;;;;5074097;28;876;-46
2022/05/05 00:41:17;;;;;;;;;;;25.70;35.00;;;;;;5073720;28;981;-44
2022/05/05 00:43:44;;;;;;;;;;;25.70;35.10;;;;;;5072554;28;1040;-46
2022/05/05 00:46:11;;;;;;;;;;;25.70;35.10;;;;;;5073296;28;1902;-45
2022/05/05 00:48:38;;;;;;;;;;;25.70;35.10;;;;;;5073589;28;1005;-44
2022/05/05 00:51:05;;;;;;;;;;;25.70;35.20;;;;;;5074502;28;1028;-44
2022/05/05 00:53:31;;;;;;;;;;;25.70;35.20;;;;;;5072846;28;984;-45
2022/05/05 00:56:00;;;;;;;;;;;25.60;35.10;;;;;;5076115;28;1053;-44
2022/05/05 00:58:28;;;;;;;;;;;25.70;35.20;;;;;;5077894;28;873;-44
2022/05/05 01:00:55;;;;;;;;;;;25.70;35.30;;;;;;5078407;28;1045;-44
2022/05/05 01:03:22;;;;;;;;;;;25.70;35.30;;;;;;5079781;28;967;-45
2022/05/05 01:05:49;;;;;;;;;;;25.70;35.40;;;;;;5079047;28;1985;-44
2022/05/05 01:08:16;;;;;;;;;;;25.60;35.30;;;;;;5078935;28;952;-44
2022/05/05 01:10:43;;;;;;;;;;;25.60;35.30;;;;;;5078635;28;1004;-44
2022/05/05 01:13:10;;;;;;;;;;;25.60;35.30;;;;;;5079344;28;985;-44
2022/05/05 01:15:38;;;;;;;;;;;25.60;35.30;;;;;;5079439;28;970;-44
2022/05/05 01:18:05;;;;;;;;;;;25.60;35.40;;;;;;5077255;28;893;-44
2022/05/05 01:20:32;;;;;;;;;;;25.60;35.50;;;;;;5078093;28;984;-45
2022/05/05 01:23:00;;;;;;;;;;;25.60;35.50;;;;;;5078170;28;949;-44
2022/05/05 01:28:14;;;;;;;;;;;25.60;35.50;;;;;;5078241;28;593;-45
2022/05/05 01:30:41;;;;;;;;;;;25.60;35.50;;;;;;5078647;28;968;-44
2022/05/05 01:33:15;;;;;;;;;;;25.60;35.60;;;;;;5078129;28;1028;-44
2022/05/05 01:35:42;;;;;;;;;;;25.60;35.60;;;;;;5076900;28;987;-44
2022/05/05 01:38:11;;;;;;;;;;;25.60;35.60;;;;;;5077078;28;932;-44
2022/05/05 01:40:39;;;;;;;;;;;25.60;35.60;;;;;;5077625;28;954;-44
2022/05/05 01:43:06;;;;;;;;;;;25.50;35.60;;;;;;5077011;28;1141;-44
2022/05/05 01:45:33;;;;;;;;;;;25.60;35.70;;;;;;5077234;28;984;-44
2022/05/05 01:48:00;;;;;;;;;;;25.60;35.70;;;;;;5076509;28;1979;-43
2022/05/05 01:50:27;;;;;;;;;;;25.50;35.70;;;;;;5075771;28;1170;-43
2022/05/05 01:52:54;;;;;;;;;;;25.50;35.70;;;;;;5075920;28;940;-45
2022/05/05 01:55:22;;;;;;;;;;;25.60;35.70;;;;;;5076566;28;936;-45
2022/05/05 01:57:49;;;;;;;;;;;25.50;35.70;;;;;;5077226;28;900;-43
2022/05/05 02:00:17;;;;;;;;;;;25.60;35.80;;;;;;5076452;28;964;-43
2022/05/05 02:02:43;;;;;;;;;;;25.50;35.80;;;;;;5077104;28;996;-43
2022/05/05 02:05:10;;;;;;;;;;;25.50;35.80;;;;;;5075605;28;960;-43
2022/05/05 02:07:37;;;;;;;;;;;25.50;35.80;;;;;;5077992;28;1910;-43
2022/05/05 02:10:04;;;;;;;;;;;25.50;35.80;;;;;;5076811;28;1023;-43
2022/05/05 02:12:33;;;;;;;;;;;25.50;35.80;;;;;;5077389;28;944;-43
2022/05/05 02:14:59;;;;;;;;;;;25.50;35.80;;;;;;5076710;28;1052;-44
2022/05/05 02:17:26;;;;;;;;;;;25.50;35.80;;;;;;5077641;28;920;-42
2022/05/05 02:19:52;;;;;;;;;;;25.50;35.80;;;;;;5076038;28;1482;-43
2022/05/05 02:22:19;;;;;;;;;;;25.50;35.80;;;;;;5075239;28;985;-43
2022/05/05 02:24:46;;;;;;;;;;;25.50;35.80;;;;;;5075530;28;941;-43
2022/05/05 02:27:13;;;;;;;;;;;25.50;35.80;;;;;;5076438;28;1977;-43
2022/05/05 02:29:42;;;;;;;;;;;25.50;35.90;;;;;;5075089;28;936;-44
2022/05/05 02:32:09;;;;;;;;;;;25.50;35.80;;;;;;5075141;28;1035;-44
2022/05/05 02:34:35;;;;;;;;;;;25.50;35.80;;;;;;5075264;28;882;-43
2022/05/05 02:39:46;;;;;;;;;;;25.50;35.90;;;;;;5076119;28;699;-43
2022/05/05 02:42:13;;;;;;;;;;;25.50;35.90;;;;;;5074990;28;995;-43
2022/05/05 02:44:41;;;;;;;;;;;25.50;36.10;;;;;;5075168;28;1017;-43
2022/05/05 02:47:08;;;;;;;;;;;25.50;36.00;;;;;;5075536;28;1905;-43
2022/05/05 02:49:35;;;;;;;;;;;25.50;36.00;;;;;;5074896;28;801;-43
2022/05/05 02:52:02;;;;;;;;;;;25.40;36.00;;;;;;5075331;28;1108;-43
2022/05/05 02:57:13;;;;;;;;;;;25.50;36.00;;;;;;5076973;28;999;-44
2022/05/05 02:59:41;;;;;;;;;;;25.40;35.90;;;;;;5074448;28;914;-44
2022/05/05 03:02:08;;;;;;;;;;;25.50;36.10;;;;;;5072926;28;948;-43
2022/05/05 03:04:34;;;;;;;;;;;25.40;36.00;;;;;;5073873;28;1027;-43
2022/05/05 03:07:01;;;;;;;;;;;25.40;36.00;;;;;;5073126;28;1977;-43
2022/05/05 03:09:28;;;;;;;;;;;25.40;36.00;;;;;;5074628;28;996;-43
2022/05/05 03:11:54;;;;;;;;;;;25.40;36.00;;;;;;5073959;28;1014;-43
2022/05/05 03:14:21;;;;;;;;;;;25.50;36.10;;;;;;5074317;28;977;-43
2022/05/05 03:16:49;;;;;;;;;;;25.50;36.10;;;;;;5072860;28;987;-44
2022/05/05 03:19:16;;;;;;;;;;;25.40;36.00;;;;;;5074604;28;1039;-43
2022/05/05 03:21:43;;;;;;;;;;;25.40;36.20;;;;;;5073923;28;948;-43
2022/05/05 03:24:10;;;;;;;;;;;25.40;36.10;;;;;;5074998;28;1012;-43
2022/05/05 03:26:37;;;;;;;;;;;25.40;36.10;;;;;;5074889;28;1992;-44
2022/05/05 03:29:04;;;;;;;;;;;25.40;36.10;;;;;;5073899;28;987;-43
2022/05/05 03:31:31;;;;;;;;;;;25.50;36.20;;;;;;5074143;28;909;-43
2022/05/05 03:33:59;;;;;;;;;;;25.40;36.10;;;;;;5074555;28;1060;-45
2022/05/05 03:36:26;;;;;;;;;;;25.40;36.10;;;;;;5072732;28;872;-44
2022/05/05 03:38:54;;;;;;;;;;;25.50;36.20;;;;;;5072121;28;1081;-44
2022/05/05 03:41:20;;;;;;;;;;;25.50;36.20;;;;;;5072062;28;1181;-44
2022/05/05 03:43:47;;;;;;;;;;;25.40;36.20;;;;;;5073475;28;1492;-44
2022/05/05 03:46:14;;;;;;;;;;;25.40;36.30;;;;;;5072962;28;1898;-44
2022/05/05 03:48:41;;;;;;;;;;;25.40;36.10;;;;;;5073080;28;931;-44
2022/05/05 03:51:09;;;;;;;;;;;25.40;36.10;;;;;;5073064;28;920;-45
2022/05/05 03:53:36;;;;;;;;;;;25.40;36.20;;;;;;5071849;28;969;-45
2022/05/05 03:56:04;;;;;;;;;;;25.40;36.30;;;;;;5071699;28;968;-44
2022/05/05 03:58:30;;;;;;;;;;;25.40;36.20;;;;;;5072599;28;1098;-45
2022/05/05 04:00:57;;;;;;;;;;;25.40;36.30;;;;;;5073241;28;936;-44
2022/05/05 04:03:33;;;;;;;;;;;25.50;36.20;;;;;;5073680;28;1007;-46
2022/05/05 04:06:01;;;;;;;;;;;25.50;36.20;;;;;;5072620;28;909;-44
2022/05/05 04:08:29;;;;;;;;;;;25.50;36.20;;;;;;5071580;28;1984;-44
2022/05/05 04:10:56;;;;;;;;;;;25.40;36.20;;;;;;5070359;28;940;-44
2022/05/05 04:13:22;;;;;;;;;;;25.50;36.20;;;;;;5072408;28;929;-44
2022/05/05 04:15:49;;;;;;;;;;;25.40;36.30;;;;;;5072980;28;925;-44
2022/05/05 04:18:16;;;;;;;;;;;25.40;36.30;;;;;;5072887;28;972;-44
2022/05/05 04:20:43;;;;;;;;;;;25.50;36.30;;;;;;5071719;28;1752;-46
2022/05/05 04:23:10;;;;;;;;;;;25.40;36.30;;;;;;5071107;28;981;-45
2022/05/05 04:25:40;;;;;;;;;;;25.40;36.40;;;;;;5072270;28;920;-46
2022/05/05 04:28:07;;;;;;;;;;;25.40;36.40;;;;;;5074730;28;1906;-44
2022/05/05 04:30:34;;;;;;;;;;;25.40;36.30;;;;;;5075234;28;989;-44
2022/05/05 04:33:00;;;;;;;;;;;25.40;36.30;;;;;;5075649;28;1064;-44
2022/05/05 04:35:27;;;;;;;;;;;25.40;36.40;;;;;;5075271;28;1012;-44
2022/05/05 04:37:54;;;;;;;;;;;25.40;36.40;;;;;;5075288;28;981;-44
2022/05/05 04:40:21;;;;;;;;;;;25.40;36.40;;;;;;5074720;28;960;-44
2022/05/05 04:42:49;;;;;;;;;;;25.40;36.40;;;;;;5071835;28;1032;-45
2022/05/05 04:45:16;;;;;;;;;;;25.40;36.40;;;;;;5074533;28;1005;-44
2022/05/05 04:47:43;;;;;;;;;;;25.40;36.40;;;;;;5074937;28;1910;-44
2022/05/05 04:50:10;;;;;;;;;;;25.40;36.40;;;;;;5073377;28;1001;-44
2022/05/05 04:52:36;;;;;;;;;;;25.40;36.40;;;;;;5069473;28;980;-44
2022/05/05 04:55:03;;;;;;;;;;;25.40;36.40;;;;;;5068408;28;940;-45
2022/05/05 04:57:30;;;;;;;;;;;25.40;36.40;;;;;;5072375;28;975;-45
2022/05/05 04:59:59;;;;;;;;;;;25.40;36.40;;;;;;5075073;28;668;-45
2022/05/05 05:02:26;;;;;;;;;;;25.40;36.50;;;;;;5073088;28;1007;-44
2022/05/05 05:04:53;;;;;;;;;;;25.40;36.40;;;;;;5072894;28;901;-44
2022/05/05 05:07:19;;;;;;;;;;;25.40;36.50;;;;;;5072691;28;1910;-44
2022/05/05 05:09:48;;;;;;;;;;;25.40;36.60;;;;;;5074669;28;985;-45
2022/05/05 05:12:15;;;;;;;;;;;25.40;36.50;;;;;;5072737;28;991;-44
2022/05/05 05:14:42;;;;;;;;;;;25.50;36.40;;;;;;5073544;28;881;-44
2022/05/05 05:17:10;;;;;;;;;;;25.50;36.30;;;;;;5073208;28;982;-44
2022/05/05 05:19:37;;;;;;;;;;;25.60;36.20;;;;;;5067745;28;1027;-46
2022/05/05 05:22:05;;;;;;;;;;;25.70;36.10;;;;;;5068359;28;896;-44
2022/05/05 05:24:32;;;;;;;;;;;25.70;36.00;;;;;;5068689;28;985;-44
2022/05/05 05:26:59;;;;;;;;;;;25.80;36.00;;;;;;5072345;28;1894;-44
2022/05/05 05:29:25;;;;;;;;;;;25.70;36.00;;;;;;5070796;28;933;-44
2022/05/05 05:31:52;;;;;;;;;;;25.70;35.90;;;;;;5068190;28;1468;-44
2022/05/05 05:34:20;;;;;;;;;;;25.70;35.90;;;;;;5068292;28;1011;-44
2022/05/05 05:36:49;;;;;;;;;;;25.70;36.00;;;;;;5067851;28;976;-46
2022/05/05 05:39:16;;;;;;;;;;;25.80;35.90;;;;;;5067095;28;1014;-46
2022/05/05 05:41:43;;;;;;;;;;;25.80;35.80;;;;;;5069500;28;1166;-44
2022/05/05 05:44:09;;;;;;;;;;;25.80;35.80;;;;;;5069357;28;1005;-44
2022/05/05 05:46:36;;;;;;;;;;;25.80;35.70;;;;;;5067579;28;889;-47
2022/05/05 05:49:05;;;;;;;;;;;25.70;36.00;;;;;;5070118;28;1898;-49
2022/05/05 05:51:33;;;;;;;;;;;25.60;36.30;;;;;;5068987;28;1007;-47
2022/05/05 05:54:00;;;;;;;;;;;25.50;36.60;;;;;;5068969;28;964;-47
2022/05/05 05:56:26;;;;;;;;;;;25.40;37.00;;;;;;5069156;28;985;-48
2022/05/05 05:58:53;;;;;;;;;;;25.30;37.10;;;;;;5069647;28;1341;-48
2022/05/05 06:01:20;;;;;;;;;;;25.30;37.30;;;;;;5068137;28;905;-43
2022/05/05 06:03:56;;;;;;;;;;;25.30;37.30;;;;;;5073630;28;1073;-41
2022/05/05 06:06:23;;;;;;;;;;;25.30;37.40;;;;;;5069588;28;972;-41
2022/05/05 06:08:51;;;;;;;;;;;25.40;37.50;;;;;;5072297;28;1910;-41
2022/05/05 06:11:19;;;;;;;;;;;25.30;37.40;;;;;;5072327;28;994;-41
2022/05/05 06:13:45;;;;;;;;;;;25.30;37.50;;;;;;5072080;28;977;-40
2022/05/05 06:16:12;;;;;;;;;;;25.40;37.50;;;;;;5071199;28;948;-40
2022/05/05 06:18:39;;;;;;;;;;;25.40;37.50;;;;;;5072007;28;1032;-41
2022/05/05 06:21:06;;;;;;;;;;;25.40;37.60;;;;;;5071829;28;996;-39
2022/05/05 06:23:33;;;;;;;;;;;25.30;37.60;;;;;;5073742;28;893;-39
2022/05/05 06:26:02;;;;;;;;;;;25.40;37.70;;;;;;5075002;28;1105;-39
2022/05/05 06:28:29;;;;;;;;;;;25.40;37.70;;;;;;5075484;28;1910;-40
2022/05/05 06:30:56;;;;;;;;;;;25.40;37.60;;;;;;5071086;28;1014;-40
2022/05/05 06:33:23;;;;;;;;;;;25.40;37.60;;;;;;5071230;28;865;-38
2022/05/05 06:35:49;;;;;;;;;;;25.40;37.60;;;;;;5071671;28;889;-40
2022/05/05 06:38:16;;;;;;;;;;;25.40;37.60;;;;;;5071600;28;1016;-39
2022/05/05 06:40:44;;;;;;;;;;;25.40;37.60;;;;;;5071021;28;1412;-39
2022/05/05 06:43:12;;;;;;;;;;;25.40;37.60;;;;;;5069562;28;1088;-39
2022/05/05 06:45:39;;;;;;;;;;;25.40;37.50;;;;;;5071783;28;982;-39
2022/05/05 06:48:06;;;;;;;;;;;25.40;37.50;;;;;;5071107;28;1902;-40
2022/05/05 06:50:33;;;;;;;;;;;25.40;37.60;;;;;;5070463;28;1868;-40
2022/05/05 06:53:00;;;;;;;;;;;25.40;37.60;;;;;;5070661;28;885;-39
2022/05/05 06:55:27;;;;;;;;;;;25.40;37.50;;;;;;5069832;28;1016;-39
2022/05/05 06:57:54;;;;;;;;;;;25.40;37.60;;;;;;5070843;28;1004;-39
2022/05/05 07:00:22;;;;;;;;;;;25.40;37.60;;;;;;5069089;28;931;-40
2022/05/05 07:02:49;;;;;;;;;;;25.40;37.60;;;;;;5070170;28;937;-40
2022/05/05 07:05:23;;;;;;;;;;;25.40;37.60;;;;;;5071306;28;992;-38
2022/05/05 07:07:50;;;;;;;;;;;25.40;37.50;;;;;;5071276;28;1991;-41
2022/05/05 07:13:02;;;;;;;;;;;25.40;37.60;;;;;;5069217;28;615;-40
2022/05/05 07:15:30;;;;;;;;;;;25.40;37.70;;;;;;5068936;28;909;-40
2022/05/05 07:17:56;;;;;;;;;;;25.40;37.60;;;;;;5069402;28;1004;-39
2022/05/05 07:20:24;;;;;;;;;;;25.40;37.60;;;;;;5067078;28;1017;-40
2022/05/05 07:22:52;;;;;;;;;;;25.40;37.60;;;;;;5067102;28;857;-39
2022/05/05 07:25:18;;;;;;;;;;;25.40;37.50;;;;;;5067614;28;1026;-39
2022/05/05 07:27:45;;;;;;;;;;;25.40;37.50;;;;;;5068194;28;1990;-40
2022/05/05 07:30:13;;;;;;;;;;;25.40;37.60;;;;;;5068318;28;1024;-41
2022/05/05 07:32:41;;;;;;;;;;;25.40;37.50;;;;;;5068834;28;893;-40
2022/05/05 07:35:08;;;;;;;;;;;25.40;37.50;;;;;;5067113;28;1006;-39
2022/05/05 07:37:36;;;;;;;;;;;25.40;37.60;;;;;;5068615;28;850;-40
2022/05/05 07:40:03;;;;;;;;;;;25.40;37.70;;;;;;5068842;28;987;-40
2022/05/05 07:42:30;;;;;;;;;;;25.40;37.60;;;;;;5068379;28;1122;-39
2022/05/05 07:44:57;;;;;;;;;;;25.40;37.50;;;;;;5067123;28;1005;-40
2022/05/05 07:47:25;;;;;;;;;;;25.40;37.50;;;;;;5067737;28;944;-39
2022/05/05 07:49:53;;;;;;;;;;;25.40;37.50;;;;;;5067274;28;1910;-40
2022/05/05 07:52:20;;;;;;;;;;;25.40;37.50;;;;;;5068095;28;1774;-38
2022/05/05 07:54:47;;;;;;;;;;;25.40;37.50;;;;;;5066637;28;866;-40
2022/05/05 07:57:17;;;;;;;;;;;25.40;37.60;;;;;;5068126;28;1016;-39
2022/05/05 07:59:45;;;;;;;;;;;25.40;37.60;;;;;;5067819;28;1011;-40
2022/05/05 08:02:15;;;;;;;;;;;25.40;37.60;;;;;;5064102;28;979;-39
2022/05/05 08:04:43;;;;;;;;;;;25.40;37.70;;;;;;5065372;28;973;-40
2022/05/05 08:07:12;;;;;;;;;;;25.40;37.70;;;;;;5065552;28;1004;-40
2022/05/05 08:09:39;;;;;;;;;;;25.40;37.70;;;;;;5066317;28;1906;-40
2022/05/05 08:12:06;;;;;;;;;;;25.40;37.70;;;;;;5067200;28;918;-39
2022/05/05 08:14:33;;;;;;;;;;;25.40;37.70;;;;;;5066812;28;889;-39
2022/05/05 08:17:00;;;;;;;;;;;25.40;37.70;;;;;;5067398;28;967;-40
2022/05/05 08:19:27;;;;;;;;;;;25.40;37.80;;;;;;5068220;28;869;-40
2022/05/05 08:21:53;;;;;;;;;;;25.40;37.80;;;;;;5067924;28;1102;-39
2022/05/05 08:29:51;;;;;;;;;;;25.40;37.80;;;;;;5065817;28;1986;-39
2022/05/05 08:32:19;;;;;;;;;;;25.40;37.80;;;;;;5068165;28;1052;-40
2022/05/05 08:34:46;;;;;;;;;;;25.40;37.80;;;;;;5066812;28;956;-39
2022/05/05 08:37:13;;;;;;;;;;;25.40;37.80;;;;;;5067084;28;1023;-40
2022/05/05 08:39:44;;;;;;;;;;;25.40;37.70;;;;;;5063944;28;842;-40
2022/05/05 08:42:12;;;;;;;;;;;25.40;37.80;;;;;;5068172;28;1073;-40
2022/05/05 08:44:40;;;;;;;;;;;25.40;37.80;;;;;;5067439;28;721;-40
2022/05/05 08:47:10;;;;;;;;;;;25.40;37.80;;;;;;5067382;28;978;-39
2022/05/05 08:49:38;;;;;;;;;;;25.40;37.80;;;;;;5066119;28;1942;-39
2022/05/05 08:52:09;;;;;;;;;;;25.40;37.90;;;;;;5066399;28;889;-40
2022/05/05 08:54:36;;;;;;;;;;;25.40;37.80;;;;;;5066025;28;1084;-39
2022/05/05 08:57:05;;;;;;;;;;;25.40;37.80;;;;;;5063523;28;1202;-40
2022/05/05 08:59:32;;;;;;;;;;;25.40;37.70;;;;;;5064903;28;1020;-38
2022/05/05 09:01:59;;;;;;;;;;;25.40;37.80;;;;;;5066303;28;889;-39
2022/05/05 09:04:26;;;;;;;;;;;25.40;37.60;;;;;;5064979;28;1013;-39
2022/05/05 09:06:54;;;;;;;;;;;25.40;37.60;;;;;;5064409;28;1010;-40
2022/05/05 09:09:28;;;;;;;;;;;25.40;37.60;;;;;;5064950;28;1906;-39
2022/05/05 09:12:16;;;;;;;;;;;25.40;37.60;;;;;;5066740;28;968;-39
2022/05/05 09:14:44;;;;;;;;;;;25.40;37.60;;;;;;5069714;28;1000;-39
2022/05/05 09:17:13;;;;;;;;;;;25.40;37.60;;;;;;5070567;28;1018;-39
2022/05/05 09:19:41;;;;;;;;;;;25.40;37.60;;;;;;5070141;28;1004;-40
2022/05/05 09:22:08;;;;;;;;;;;25.40;37.60;;;;;;5069481;28;1048;-39
2022/05/05 09:24:40;;;;;;;;;;;25.40;37.60;;;;;;5067850;28;1027;-39
2022/05/05 09:27:19;;;;;;;;;;;25.40;37.60;;;;;;5069467;28;1019;-39
2022/05/05 09:29:58;;;;;;;;;;;25.40;37.60;;;;;;5069136;28;1901;-39
2022/05/05 09:32:27;;;;;;;;;;;25.50;37.60;;;;;;5070812;28;988;-39
2022/05/05 09:34:56;;;;;;;;;;;25.40;37.50;;;;;;5069955;28;1002;-39
2022/05/05 09:37:22;;;;;;;;;;;25.50;37.60;;;;;;5069130;28;845;-39
2022/05/05 09:39:53;;;;;;;;;;;25.50;37.60;;;;;;5069357;28;1027;-38
2022/05/05 09:42:34;;;;;;;;;;;25.50;37.60;;;;;;5067849;28;1242;-39
2022/05/05 09:45:11;;;;;;;;;;;25.50;37.60;;;;;;5066990;28;995;-38
2022/05/05 09:47:38;;;;;;;;;;;25.50;37.60;;;;;;5066902;28;849;-39
2022/05/05 09:50:05;;;;;;;;;;;25.50;37.60;;;;;;5068030;28;1977;-39
2022/05/05 09:58:06;;;;;;;;;;;25.50;37.50;;;;;;5067413;28;600;-39
2022/05/05 10:00:45;;;;;;;;;;;25.50;37.60;;;;;;5070190;28;1529;-39
2022/05/05 10:05:57;;;;;;;;;;;25.50;37.60;;;;;;5068436;28;900;-39
2022/05/05 10:08:42;;;;;;;;;;;25.50;37.60;;;;;;5068036;28;1918;-39
2022/05/05 10:11:09;;;;;;;;;;;25.50;37.60;;;;;;5068212;28;1201;-40
2022/05/05 10:13:38;;;;;;;;;;;25.50;37.60;;;;;;5067646;28;839;-38
2022/05/05 10:16:06;;;;;;;;;;;25.50;37.60;;;;;;5070797;28;916;-39
2022/05/05 10:18:33;;;;;;;;;;;25.50;37.70;;;;;;5069000;28;1018;-39
2022/05/05 10:21:01;;;;;;;;;;;25.50;37.70;;;;;;5069386;28;1062;-39
2022/05/05 10:23:31;;;;;;;;;;;25.50;37.60;;;;;;5068971;28;861;-38
2022/05/05 10:25:59;;;;;;;;;;;25.50;37.60;;;;;;5068037;28;868;-39
2022/05/05 10:28:43;;;;;;;;;;;25.50;37.60;;;;;;5067551;28;1906;-39
2022/05/05 10:31:13;;;;;;;;;;;25.50;37.60;;;;;;5069904;28;908;-40
2022/05/05 10:33:59;;;;;;;;;;;25.50;37.60;;;;;;5068136;28;913;-39
2022/05/05 10:36:26;;;;;;;;;;;25.50;37.60;;;;;;5067692;28;926;-39
2022/05/05 10:38:53;;;;;;;;;;;25.50;37.60;;;;;;5068738;28;912;-39
2022/05/05 10:41:40;;;;;;;;;;;25.60;37.70;;;;;;5068365;28;1124;-38
2022/05/05 10:44:20;;;;;;;;;;;25.50;37.70;;;;;;5062709;28;1780;-40
2022/05/05 10:47:08;;;;;;;;;;;25.60;37.70;;;;;;5064667;28;1099;-40
2022/05/05 10:49:50;;;;;;;;;;;25.50;37.60;;;;;;5056201;28;1993;-39
2022/05/05 10:52:29;;;;;;;;;;;25.50;37.70;;;;;;5062157;28;1105;-39
2022/05/05 10:54:57;;;;;;;;;;;25.50;37.70;;;;;;5064561;28;997;-39
2022/05/05 10:57:42;;;;;;;;;;;25.60;37.80;;;;;;5065736;28;913;-39
2022/05/05 11:00:12;;;;;;;;;;;25.50;37.70;;;;;;5060948;28;1003;-40
2022/05/05 11:02:39;;;;;;;;;;;25.50;37.70;;;;;;5062166;28;810;-39
2022/05/05 11:05:35;;;;;;;;;;;25.60;37.80;;;;;;5062339;28;1017;-39
2022/05/05 11:08:19;;;;;;;;;;;25.50;37.80;;;;;;5027481;28;1271;-38
2022/05/05 11:10:46;;;;;;;;;;;25.60;37.80;;;;;;5062372;28;1914;-39
2022/05/05 11:13:32;;;;;;;;;;;25.50;37.60;;;;;;5066441;28;993;-38
2022/05/05 11:22:05;;;;;;;;;;;25.60;37.80;;;;;;5063735;28;997;-39
2022/05/05 11:24:32;;;;;;;;;;;25.60;37.80;;;;;;5064962;28;1026;-39
2022/05/05 11:26:59;;;;;;;;;;;25.60;37.80;;;;;;5064186;28;1101;-39
2022/05/05 11:29:28;;;;;;;;;;;25.60;37.80;;;;;;5064407;28;1902;-39
2022/05/05 11:32:00;;;;;;;;;;;25.60;37.80;;;;;;5066032;28;1038;-40
2022/05/05 11:34:33;;;;;;;;;;;25.60;37.90;;;;;;5064810;28;984;-39
2022/05/05 11:37:01;;;;;;;;;;;25.60;37.80;;;;;;5062939;28;936;-39
2022/05/05 11:39:29;;;;;;;;;;;25.60;37.80;;;;;;5065689;28;853;-39
2022/05/05 11:42:03;;;;;;;;;;;25.60;37.80;;;;;;5066042;28;1110;-39
2022/05/05 11:44:29;;;;;;;;;;;25.60;37.80;;;;;;5067889;28;861;-38
2022/05/05 11:46:57;;;;;;;;;;;25.60;37.80;;;;;;5068493;28;1026;-39
2022/05/05 11:49:32;;;;;;;;;;;25.70;37.80;;;;;;5067105;28;1906;-40
2022/05/05 11:51:59;;;;;;;;;;;25.60;37.80;;;;;;5066763;28;1088;-40
2022/05/05 11:54:27;;;;;;;;;;;25.60;37.80;;;;;;5065410;28;936;-39
2022/05/05 11:56:54;;;;;;;;;;;25.60;37.80;;;;;;5067947;28;1021;-39
2022/05/05 12:02:09;;;;;;;;;;;25.60;37.80;;;;;;5067656;28;1025;-39
2022/05/05 12:04:38;;;;;;;;;;;25.70;37.90;;;;;;5065388;28;917;-40
2022/05/05 12:07:06;;;;;;;;;;;25.70;37.80;;;;;;5064098;28;1002;-39
2022/05/05 12:09:33;;;;;;;;;;;25.70;37.90;;;;;;5064858;28;1976;-39
2022/05/05 12:12:10;;;;;;;;;;;25.70;37.80;;;;;;5063691;28;1354;-39
2022/05/05 12:14:41;;;;;;;;;;;25.70;37.80;;;;;;5062750;28;940;-40
2022/05/05 12:17:09;;;;;;;;;;;25.70;37.80;;;;;;5064825;28;1033;-41
2022/05/05 12:19:46;;;;;;;;;;;25.70;37.80;;;;;;5066510;28;916;-40
2022/05/05 12:22:13;;;;;;;;;;;25.70;37.90;;;;;;5064493;28;1125;-39
2022/05/05 12:24:44;;;;;;;;;;;25.70;37.80;;;;;;5065791;28;940;-40
2022/05/05 12:27:11;;;;;;;;;;;25.70;37.80;;;;;;5065440;28;1026;-40
2022/05/05 12:29:39;;;;;;;;;;;25.70;37.80;;;;;;5065175;28;1919;-40
2022/05/05 12:32:09;;;;;;;;;;;25.70;37.80;;;;;;5065605;28;1087;-40
2022/05/05 12:34:35;;;;;;;;;;;25.70;37.80;;;;;;5067772;28;960;-40
2022/05/05 12:37:17;;;;;;;;;;;25.70;37.80;;;;;;5067012;28;896;-39
2022/05/05 12:39:50;;;;;;;;;;;25.70;37.90;;;;;;5063144;28;968;-40
2022/05/05 12:42:17;;;;;;;;;;;25.70;37.90;;;;;;5065313;28;1018;-39
2022/05/05 12:44:44;;;;;;;;;;;25.70;37.80;;;;;;5067057;28;1060;-40
2022/05/05 12:47:12;;;;;;;;;;;25.70;37.90;;;;;;5065716;28;1227;-39
2022/05/05 12:49:39;;;;;;;;;;;25.80;37.80;;;;;;5068226;28;1910;-39
2022/05/05 12:59:36;;;;;;;;;;;25.80;37.90;;;;;;5067725;28;1005;-39
2022/05/05 13:00:23;;;;;;;;;;;25.80;39.00;;;;;;5067446;28;890;-39
2022/05/05 13:02:51;;;;;;;;;;;25.80;37.90;;;;;;5066335;28;1251;-39
2022/05/05 13:05:19;;;;;;;;;;;25.80;38.00;;;;;;5066004;28;1392;-40
2022/05/05 13:07:48;;;;;;;;;;;25.80;38.00;;;;;;5071537;28;1391;-39
2022/05/05 13:10:16;;;;;;;;;;;25.80;38.00;;;;;;5071842;28;1898;-38
2022/05/05 13:12:43;;;;;;;;;;;25.80;38.00;;;;;;5066168;28;1028;-38
2022/05/05 13:15:10;;;;;;;;;;;25.80;38.00;;;;;;5068034;28;968;-38
2022/05/05 13:17:37;;;;;;;;;;;25.80;38.00;;;;;;5067265;28;1039;-40
2022/05/05 13:20:04;;;;;;;;;;;25.80;38.00;;;;;;5069011;28;973;-38
2022/05/05 13:22:32;;;;;;;;;;;25.80;38.00;;;;;;5067257;28;957;-39
2022/05/05 13:24:59;;;;;;;;;;;25.80;38.00;;;;;;5068119;28;1090;-39
2022/05/05 13:27:27;;;;;;;;;;;25.80;38.00;;;;;;5067049;28;1040;-39
2022/05/05 13:29:55;;;;;;;;;;;25.90;38.10;;;;;;5067288;28;1975;-37
2022/05/05 13:32:22;;;;;;;;;;;25.90;38.10;;;;;;5067332;28;944;-40
2022/05/05 13:34:48;;;;;;;;;;;25.90;38.00;;;;;;5067938;28;1008;-39
2022/05/05 13:37:15;;;;;;;;;;;25.90;37.90;;;;;;5067709;28;1014;-39
2022/05/05 13:39:42;;;;;;;;;;;25.90;38.00;;;;;;5067486;28;1093;-38
2022/05/05 13:42:09;;;;;;;;;;;25.90;37.90;;;;;;5065705;28;1142;-40
2022/05/05 13:44:37;;;;;;;;;;;25.90;37.90;;;;;;5067600;28;850;-41
2022/05/05 13:47:04;;;;;;;;;;;25.90;37.90;;;;;;5069384;28;990;-40
2022/05/05 13:49:31;;;;;;;;;;;26.00;37.90;;;;;;5068468;28;1983;-40
2022/05/05 13:51:57;;;;;;;;;;;26.00;38.00;;;;;;5065901;28;1004;-40
2022/05/05 13:54:24;;;;;;;;;;;26.10;37.90;;;;;;5067834;28;865;-39
2022/05/05 13:56:52;;;;;;;;;;;26.10;38.00;;;;;;5069063;28;873;-40
2022/05/05 13:59:19;;;;;;;;;;;26.10;37.90;;;;;;5066432;28;954;-41
2022/05/05 14:01:47;;;;;;;;;;;26.10;37.90;;;;;;5065697;28;973;-39
2022/05/05 14:04:13;;;;;;;;;;;26.10;38.00;;;;;;5066274;28;973;-38
2022/05/05 14:06:40;;;;;;;;;;;26.10;38.00;;;;;;5065699;28;1001;-40
2022/05/05 14:14:36;;;;;;;;;;;26.10;37.90;;;;;;5070400;28;697;-39
2022/05/05 14:17:05;;;;;;;;;;;26.10;38.00;;;;;;5068157;28;1567;-38
2022/05/05 14:19:31;;;;;;;;;;;26.10;38.00;;;;;;5067495;28;960;-39
2022/05/05 14:22:00;;;;;;;;;;;26.10;38.00;;;;;;5068984;28;964;-39
2022/05/05 14:24:27;;;;;;;;;;;26.10;38.00;;;;;;5069725;28;936;-39
2022/05/05 14:26:54;;;;;;;;;;;26.10;38.00;;;;;;5068890;28;888;-38
2022/05/05 14:29:21;;;;;;;;;;;26.10;38.00;;;;;;5067780;28;858;-39
2022/05/05 14:31:48;;;;;;;;;;;26.10;38.00;;;;;;5069631;28;1918;-39
2022/05/05 14:34:16;;;;;;;;;;;26.10;38.00;;;;;;5068753;28;1243;-39
2022/05/05 14:36:43;;;;;;;;;;;26.20;38.10;;;;;;5068942;28;1012;-38
2022/05/05 14:39:10;;;;;;;;;;;26.10;38.00;;;;;;5068260;28;942;-39
2022/05/05 14:41:37;;;;;;;;;;;26.20;38.00;;;;;;5064131;28;1220;-38
2022/05/05 14:44:04;;;;;;;;;;;26.20;38.00;;;;;;5063705;28;1808;-40
2022/05/05 14:46:31;;;;;;;;;;;26.20;38.00;;;;;;5059207;28;1433;-40
2022/05/05 14:48:59;;;;;;;;;;;26.20;37.90;;;;;;5046981;28;992;-40
2022/05/05 14:51:28;;;;;;;;;;;26.20;38.00;;;;;;5047865;28;1910;-39
2022/05/05 14:53:57;;;;;;;;;;;26.30;38.00;;;;;;5046742;28;896;-40
2022/05/05 14:56:24;;;;;;;;;;;26.30;38.00;;;;;;5047980;28;1044;-40
2022/05/05 14:58:52;;;;;;;;;;;26.30;38.00;;;;;;5063031;28;1533;-39
2022/05/05 15:01:21;;;;;;;;;;;26.40;38.10;;;;;;5070244;28;1007;-37
2022/05/05 15:03:47;;;;;;;;;;;26.40;38.00;;;;;;5069709;28;880;-40
2022/05/05 15:06:15;;;;;;;;;;;26.40;38.00;;;;;;5067943;28;1004;-40
2022/05/05 15:08:43;;;;;;;;;;;26.50;38.10;;;;;;5068648;28;964;-39
2022/05/05 15:11:10;;;;;;;;;;;26.40;37.90;;;;;;5066922;28;1987;-40
2022/05/05 15:13:37;;;;;;;;;;;26.50;38.10;;;;;;5067397;28;1000;-39
2022/05/05 15:16:04;;;;;;;;;;;26.50;38.00;;;;;;5068032;28;1100;-39
2022/05/05 15:18:31;;;;;;;;;;;26.50;38.00;;;;;;5066252;28;941;-39
2022/05/05 15:21:01;;;;;;;;;;;26.50;38.00;;;;;;5065320;28;912;-39
2022/05/05 15:23:28;;;;;;;;;;;26.60;38.00;;;;;;5070164;28;909;-41
2022/05/05 15:25:57;;;;;;;;;;;26.60;38.00;;;;;;5070166;28;941;-39
2022/05/05 15:28:23;;;;;;;;;;;26.60;38.00;;;;;;5067815;28;976;-40
2022/05/05 15:30:50;;;;;;;;;;;26.60;37.90;;;;;;5068386;28;2011;-39
2022/05/05 15:33:17;;;;;;;;;;;26.70;38.00;;;;;;5068237;28;1004;-39